createdAt,value
2022-07-28T00:02:18.932Z,8.50
2022-07-28T00:04:50.999Z,8.50
2022-07-28T00:07:20.878Z,8.50
2022-07-28T00:09:50.264Z,8.50
2022-07-28T00:12:19.634Z,8.50
2022-07-28T00:14:48.821Z,8.50
2022-07-28T00:17:18.299Z,8.40
2022-07-28T00:19:48.750Z,8.40
2022-07-28T00:22:18.208Z,8.40
2022-07-28T00:24:49.183Z,8.30
2022-07-28T00:27:19.624Z,8.30
2022-07-28T00:29:50.932Z,8.20
2022-07-28T00:32:23.817Z,8.10
2022-07-28T00:34:55.956Z,8.10
2022-07-28T00:37:25.568Z,8.10
2022-07-28T00:39:55.298Z,8.10
2022-07-28T00:42:24.649Z,8.10
2022-07-28T00:44:53.840Z,8.10
2022-07-28T00:47:23.579Z,8.10
2022-07-28T00:49:55.660Z,8.00
2022-07-28T00:52:25.743Z,7.90
2022-07-28T00:54:55.456Z,7.90
2022-07-28T00:57:24.395Z,7.80
2022-07-28T00:59:53.896Z,7.80
2022-07-28T01:02:23.323Z,7.80
2022-07-28T01:04:54.288Z,7.80
2022-07-28T01:07:37.043Z,7.80
2022-07-28T01:10:15.356Z,7.70
2022-07-28T01:12:52.439Z,7.80
2022-07-28T01:15:28.028Z,7.70
2022-07-28T01:18:05.311Z,7.60
2022-07-28T01:20:40.334Z,7.60
2022-07-28T01:23:45.282Z,7.60
2022-07-28T01:26:35.722Z,7.50
2022-07-28T01:29:18.069Z,7.50
2022-07-28T01:31:57.943Z,7.40
2022-07-28T01:34:32.248Z,7.30
2022-07-28T01:37:10.538Z,7.30
2022-07-28T01:39:44.008Z,7.30
2022-07-28T01:42:18.323Z,7.30
2022-07-28T01:44:51.414Z,7.20
2022-07-28T01:47:26.175Z,7.20
2022-07-28T01:49:57.886Z,7.20
2022-07-28T01:52:28.011Z,7.20
2022-07-28T01:54:58.579Z,7.20
2022-07-28T01:57:28.497Z,7.20
2022-07-28T02:00:00.845Z,7.20
2022-07-28T02:02:32.998Z,7.20
2022-07-28T02:05:04.679Z,7.20
2022-07-28T02:07:35.270Z,7.10
2022-07-28T02:10:06.062Z,7.10
2022-07-28T02:12:37.983Z,7.20
2022-07-28T02:15:11.850Z,7.40
2022-07-28T02:17:45.925Z,7.40
2022-07-28T02:20:18.314Z,7.40
2022-07-28T02:22:51.596Z,7.20
2022-07-28T02:25:22.425Z,7.10
2022-07-28T02:28:00.247Z,7.10
2022-07-28T02:30:36.103Z,7.10
2022-07-28T02:33:10.164Z,7.10
2022-07-28T02:35:48.785Z,6.90
2022-07-28T02:38:24.137Z,7.00
2022-07-28T02:41:00.125Z,7.10
2022-07-28T02:43:50.471Z,7.00
2022-07-28T02:46:23.923Z,6.90
2022-07-28T02:49:02.643Z,6.80
2022-07-28T02:51:35.206Z,6.80
2022-07-28T02:54:07.169Z,6.80
2022-07-28T02:56:37.710Z,6.80
2022-07-28T02:59:07.597Z,6.80
2022-07-28T03:01:37.019Z,6.70
2022-07-28T03:04:11.801Z,6.70
2022-07-28T03:06:43.969Z,6.60
2022-07-28T03:09:13.529Z,6.60
2022-07-28T03:11:53.997Z,6.60
2022-07-28T03:14:23.817Z,6.70
2022-07-28T03:16:55.687Z,6.60
2022-07-28T03:19:26.780Z,6.60
2022-07-28T03:21:57.273Z,6.60
2022-07-28T03:24:30.404Z,6.60
2022-07-28T03:27:04.071Z,6.60
2022-07-28T03:29:36.013Z,6.70
2022-07-28T03:32:05.862Z,6.80
2022-07-28T03:34:37.504Z,6.90
2022-07-28T03:37:10.664Z,7.00
2022-07-28T03:39:47.492Z,7.00
2022-07-28T03:42:20.232Z,7.10
2022-07-28T03:44:51.818Z,7.00
2022-07-28T03:47:24.807Z,7.10
2022-07-28T03:49:55.748Z,7.00
2022-07-28T03:52:24.932Z,7.10
2022-07-28T03:54:55.235Z,7.10
2022-07-28T03:57:25.160Z,7.20
2022-07-28T03:59:54.335Z,7.30
2022-07-28T04:02:23.418Z,7.40
2022-07-28T04:04:52.667Z,7.50
2022-07-28T04:07:25.648Z,7.50
2022-07-28T04:09:55.224Z,7.70
2022-07-28T04:12:24.355Z,7.70
2022-07-28T04:14:54.564Z,7.80
2022-07-28T04:17:23.883Z,7.90
2022-07-28T04:19:53.265Z,8.00
2022-07-28T04:22:25.735Z,8.10
2022-07-28T04:24:56.151Z,8.20
2022-07-28T04:27:24.974Z,8.30
2022-07-28T04:29:54.139Z,8.40
2022-07-28T04:32:24.311Z,8.50
2022-07-28T04:34:57.062Z,8.50
2022-07-28T04:37:32.366Z,8.70
2022-07-28T04:40:02.486Z,8.80
2022-07-28T04:42:32.364Z,8.90
2022-07-28T04:45:01.666Z,9.00
2022-07-28T04:47:31.022Z,8.90
2022-07-28T04:50:00.522Z,9.30
2022-07-28T04:52:32.030Z,9.50
2022-07-28T04:55:01.477Z,9.60
2022-07-28T04:57:30.975Z,9.80
2022-07-28T05:00:02.143Z,9.90
2022-07-28T05:02:31.088Z,10.00
2022-07-28T05:05:00.287Z,10.20
2022-07-28T05:07:31.410Z,10.30
2022-07-28T05:10:00.727Z,10.40
2022-07-28T05:12:29.937Z,10.50
2022-07-28T05:14:59.290Z,10.60
2022-07-28T05:17:28.738Z,10.80
2022-07-28T05:19:58.008Z,10.90
2022-07-28T05:22:28.229Z,11.00
2022-07-28T05:24:59.134Z,11.10
2022-07-28T05:27:28.429Z,11.30
2022-07-28T05:29:57.469Z,11.50
2022-07-28T05:32:26.892Z,11.60
2022-07-28T05:34:56.313Z,11.70
2022-07-28T05:37:26.171Z,11.90
2022-07-28T05:39:56.189Z,12.00
2022-07-28T05:42:30.813Z,12.10
2022-07-28T05:45:00.368Z,12.20
2022-07-28T05:47:29.840Z,12.40
2022-07-28T05:50:02.928Z,12.60
2022-07-28T05:52:36.140Z,12.80
2022-07-28T05:55:06.333Z,13.00
2022-07-28T05:57:37.943Z,13.20
2022-07-28T06:00:11.510Z,13.40
2022-07-28T06:02:41.153Z,13.40
2022-07-28T06:05:11.219Z,13.70
2022-07-28T06:07:44.382Z,13.90
2022-07-28T06:10:15.115Z,14.10
2022-07-28T06:12:46.858Z,14.20
2022-07-28T06:15:16.599Z,14.30
2022-07-28T06:17:45.993Z,14.40
2022-07-28T06:20:16.004Z,14.40
2022-07-28T06:22:46.169Z,14.60
2022-07-28T06:25:17.253Z,14.90
2022-07-28T06:27:49.293Z,15.20
2022-07-28T06:30:19.358Z,15.10
2022-07-28T06:32:48.702Z,15.30
2022-07-28T06:35:19.939Z,15.60
2022-07-28T06:37:50.810Z,15.80
2022-07-28T06:40:22.074Z,15.80
2022-07-28T06:42:53.968Z,16.10
2022-07-28T06:45:23.575Z,16.20
2022-07-28T06:47:55.627Z,16.30
2022-07-28T06:50:30.730Z,16.40
2022-07-28T06:52:59.810Z,16.60
2022-07-28T06:55:35.109Z,16.70
2022-07-28T06:58:08.067Z,16.60
2022-07-28T07:00:37.005Z,16.80
2022-07-28T07:03:09.574Z,17.00
2022-07-28T07:05:39.017Z,17.20
2022-07-28T07:08:07.950Z,17.40
2022-07-28T07:10:36.990Z,17.50
2022-07-28T07:13:07.479Z,17.60
2022-07-28T07:15:36.571Z,17.80
2022-07-28T07:18:07.230Z,17.80
2022-07-28T07:20:36.409Z,17.90
2022-07-28T07:23:05.525Z,18.00
2022-07-28T07:25:35.419Z,18.00
2022-07-28T07:28:04.692Z,18.00
2022-07-28T07:30:35.884Z,18.20
2022-07-28T07:33:09.702Z,18.30
2022-07-28T07:35:40.554Z,18.50
2022-07-28T07:38:13.357Z,18.70
2022-07-28T07:40:49.478Z,19.10
2022-07-28T07:43:19.456Z,19.10
2022-07-28T07:45:52.088Z,19.50
2022-07-28T07:48:21.537Z,19.60
2022-07-28T07:50:54.023Z,19.70
2022-07-28T07:53:24.686Z,19.90
2022-07-28T07:55:55.540Z,20.10
2022-07-28T07:58:24.888Z,20.10
2022-07-28T08:00:59.124Z,20.20
2022-07-28T08:03:28.726Z,20.40
2022-07-28T08:05:58.333Z,20.80
2022-07-28T08:08:30.020Z,20.60
2022-07-28T08:10:59.477Z,20.60
2022-07-28T08:13:36.567Z,20.80
2022-07-28T08:16:08.975Z,20.90
2022-07-28T08:18:38.803Z,21.10
2022-07-28T08:21:08.280Z,21.50
2022-07-28T08:23:37.651Z,21.50
2022-07-28T08:26:07.403Z,21.50
2022-07-28T08:28:37.145Z,21.50
2022-07-28T08:31:09.323Z,21.60
2022-07-28T08:33:54.207Z,21.90
2022-07-28T08:36:26.479Z,22.10
2022-07-28T08:38:59.594Z,22.70
2022-07-28T08:41:34.632Z,22.70
2022-07-28T08:44:13.565Z,22.90
2022-07-28T08:46:46.151Z,23.00
2022-07-28T08:49:17.763Z,23.20
2022-07-28T08:51:53.088Z,23.40
2022-07-28T08:54:31.018Z,23.60
2022-07-28T08:57:02.249Z,23.50
2022-07-28T08:59:34.925Z,24.10
2022-07-28T09:02:06.280Z,24.50
2022-07-28T09:04:40.414Z,24.70
2022-07-28T09:07:13.647Z,25.30
2022-07-28T09:09:42.882Z,25.70
2022-07-28T09:12:12.507Z,26.20
2022-07-28T09:14:42.337Z,26.60
2022-07-28T09:17:12.924Z,27.20
2022-07-28T09:19:42.529Z,27.40
2022-07-28T09:22:11.674Z,27.20
2022-07-28T09:24:42.901Z,27.50
2022-07-28T09:27:16.938Z,27.30
2022-07-28T09:29:49.020Z,27.70
2022-07-28T09:32:22.562Z,28.80
2022-07-28T09:34:56.801Z,28.60
2022-07-28T09:37:30.192Z,30.40
2022-07-28T09:40:11.564Z,31.50
2022-07-28T09:42:48.205Z,31.50
2022-07-28T09:45:23.259Z,31.20
2022-07-28T09:48:11.702Z,31.40
2022-07-28T09:50:43.428Z,31.00
2022-07-28T09:53:30.761Z,31.10
2022-07-28T09:56:00.742Z,32.60
2022-07-28T09:58:32.184Z,32.90
2022-07-28T10:01:11.618Z,34.40
2022-07-28T10:03:45.254Z,35.20
2022-07-28T10:06:17.244Z,35.00
2022-07-28T10:08:48.516Z,33.60
2022-07-28T10:11:20.094Z,34.30
2022-07-28T10:13:57.784Z,34.50
2022-07-28T10:16:29.022Z,34.40
2022-07-28T10:19:01.414Z,34.10
2022-07-28T10:21:34.948Z,32.90
2022-07-28T10:24:07.356Z,33.10
2022-07-28T10:26:40.847Z,32.30
2022-07-28T10:29:15.624Z,31.90
2022-07-28T10:31:51.285Z,32.80
2022-07-28T10:34:28.620Z,32.30
2022-07-28T10:37:03.259Z,32.20
2022-07-28T10:39:41.729Z,32.60
2022-07-28T10:42:13.433Z,33.30
2022-07-28T10:44:44.474Z,34.90
2022-07-28T10:47:18.300Z,34.40
2022-07-28T10:49:53.074Z,34.70
2022-07-28T11:09:53.678Z,34.50
2022-07-28T11:12:46.574Z,32.80
2022-07-28T11:15:28.270Z,33.40
2022-07-28T11:18:08.748Z,33.60
2022-07-28T11:21:06.440Z,33.40
2022-07-28T11:23:57.785Z,34.10
2022-07-28T11:26:48.619Z,35.00
2022-07-28T11:29:24.120Z,35.90
2022-07-28T11:32:03.429Z,35.10
2022-07-28T11:35:09.844Z,36.40
2022-07-28T11:38:10.439Z,37.00
2022-07-28T11:40:44.778Z,36.10
2022-07-28T11:43:37.589Z,35.90
2022-07-28T11:46:38.490Z,36.80
2022-07-28T11:49:19.985Z,38.30
2022-07-28T11:52:17.061Z,38.10
2022-07-28T11:54:51.812Z,36.10
2022-07-28T11:57:24.343Z,37.00
2022-07-28T12:00:03.731Z,36.50
2022-07-28T12:02:36.498Z,37.00
2022-07-28T12:05:12.218Z,36.60
2022-07-28T12:07:46.784Z,37.70
2022-07-28T12:10:54.411Z,36.30
2022-07-28T12:13:28.969Z,35.50
2022-07-28T12:15:59.467Z,37.00
2022-07-28T12:18:28.549Z,38.50
2022-07-28T12:21:01.697Z,38.90
2022-07-28T12:23:45.525Z,38.00
2022-07-28T12:26:41.538Z,38.60
2022-07-28T12:29:14.727Z,36.80
2022-07-28T12:31:56.575Z,35.50
2022-07-28T12:34:29.349Z,36.30
2022-07-28T12:37:03.187Z,36.20
2022-07-28T12:39:35.035Z,37.80
2022-07-28T12:42:06.109Z,36.60
2022-07-28T12:44:40.227Z,37.70
2022-07-28T12:47:13.121Z,37.40
2022-07-28T12:49:45.093Z,37.20
2022-07-28T12:52:22.282Z,39.30
2022-07-28T12:54:55.654Z,37.80
2022-07-28T12:57:49.898Z,39.30
2022-07-28T13:00:25.676Z,39.40
2022-07-28T13:02:59.717Z,38.80
2022-07-28T13:05:55.222Z,37.90
2022-07-28T13:08:29.557Z,37.80
2022-07-28T13:10:59.534Z,37.50
2022-07-28T13:13:30.614Z,37.20
2022-07-28T13:16:13.659Z,36.90
2022-07-28T13:18:46.462Z,38.00
2022-07-28T13:21:17.095Z,38.70
2022-07-28T13:23:46.453Z,37.30
2022-07-28T13:26:16.827Z,38.40
2022-07-28T13:28:48.890Z,36.60
2022-07-28T13:31:18.456Z,36.00
2022-07-28T13:33:49.290Z,37.10
2022-07-28T13:36:19.382Z,39.70
2022-07-28T13:38:48.777Z,39.10
2022-07-28T13:41:19.130Z,39.00
2022-07-28T13:43:49.352Z,38.40
2022-07-28T13:46:21.479Z,38.30
2022-07-28T13:48:58.025Z,36.30
2022-07-28T13:51:29.400Z,36.20
2022-07-28T13:54:04.732Z,35.90
2022-07-28T13:56:33.989Z,36.50
2022-07-28T13:59:03.640Z,38.10
2022-07-28T14:01:39.786Z,39.00
2022-07-28T14:04:17.133Z,36.80
2022-07-28T14:06:47.657Z,37.40
2022-07-28T14:09:16.816Z,38.90
2022-07-28T14:11:50.018Z,38.50
2022-07-28T14:14:25.432Z,37.20
2022-07-28T14:16:56.206Z,38.80
2022-07-28T14:19:39.056Z,38.70
2022-07-28T14:22:13.805Z,37.80
2022-07-28T14:24:44.139Z,38.10
2022-07-28T14:27:13.235Z,38.00
2022-07-28T14:29:43.790Z,37.00
2022-07-28T14:32:13.627Z,36.40
2022-07-28T14:34:46.428Z,36.50
2022-07-28T14:37:17.086Z,35.50
2022-07-28T14:39:47.145Z,36.90
2022-07-28T14:42:16.103Z,37.00
2022-07-28T14:44:45.112Z,35.20
2022-07-28T14:47:15.934Z,36.20
2022-07-28T14:49:57.366Z,35.70
2022-07-28T14:52:30.112Z,37.00
2022-07-28T14:55:00.588Z,36.20
2022-07-28T14:57:48.293Z,36.70
2022-07-28T15:00:19.512Z,36.40
2022-07-28T15:02:48.836Z,37.10
2022-07-28T15:05:21.482Z,36.20
2022-07-28T15:07:52.462Z,36.40
2022-07-28T15:10:22.938Z,34.70
2022-07-28T15:12:52.254Z,34.20
2022-07-28T15:35:27.533Z,30.50
2022-07-28T15:37:59.294Z,30.00
2022-07-28T15:40:28.245Z,29.70
2022-07-28T15:42:57.202Z,29.00
2022-07-28T15:45:26.613Z,29.10
2022-07-28T15:47:55.884Z,29.60
2022-07-28T15:50:24.900Z,29.70
2022-07-28T15:52:58.078Z,29.60
2022-07-28T15:55:27.077Z,28.60
2022-07-28T15:57:55.922Z,28.10
2022-07-28T16:00:24.630Z,28.20
2022-07-28T16:02:54.269Z,27.90
2022-07-28T16:05:23.245Z,27.50
2022-07-28T16:07:52.131Z,27.00
2022-07-28T16:10:23.320Z,26.90
2022-07-28T16:12:54.301Z,26.80
2022-07-28T16:15:25.277Z,26.90
2022-07-28T16:17:55.049Z,26.80
2022-07-28T16:20:24.672Z,26.80
2022-07-28T16:22:53.905Z,26.60
2022-07-28T16:25:26.635Z,26.50
2022-07-28T16:27:55.683Z,26.60
2022-07-28T16:30:25.369Z,26.30
2022-07-28T16:32:56.464Z,26.20
2022-07-28T16:35:26.855Z,26.20
2022-07-28T16:37:55.998Z,26.20
2022-07-28T16:40:27.348Z,26.30
2022-07-28T16:42:56.780Z,25.80
2022-07-28T16:45:30.687Z,25.60
2022-07-28T16:48:03.968Z,25.50
2022-07-28T16:50:33.520Z,25.40
2022-07-28T16:53:04.946Z,25.40
2022-07-28T16:55:35.818Z,25.40
2022-07-28T16:58:05.059Z,25.40
2022-07-28T17:00:34.347Z,25.30
2022-07-28T17:03:03.686Z,25.00
2022-07-28T17:05:34.419Z,25.00
2022-07-28T17:08:05.286Z,24.60
2022-07-28T17:10:36.127Z,24.70
2022-07-28T17:13:05.292Z,24.50
2022-07-28T17:15:34.717Z,24.50
2022-07-28T17:18:05.096Z,24.30
2022-07-28T17:20:35.489Z,24.20
2022-07-28T17:23:05.026Z,24.20
2022-07-28T17:25:54.630Z,24.20
2022-07-28T17:28:25.523Z,24.10
2022-07-28T17:30:55.983Z,24.10
2022-07-28T17:33:27.153Z,24.00
2022-07-28T17:35:57.471Z,23.80
2022-07-28T17:38:32.800Z,23.70
2022-07-28T17:41:04.907Z,23.60
2022-07-28T17:43:35.470Z,23.50
2022-07-28T17:46:08.261Z,23.30
2022-07-28T17:48:40.156Z,23.20
2022-07-28T17:51:10.453Z,23.20
2022-07-28T17:53:40.198Z,23.00
2022-07-28T17:56:17.076Z,22.90
2022-07-28T17:58:46.995Z,22.50
2022-07-28T18:01:16.934Z,22.20
2022-07-28T18:03:56.681Z,22.10
2022-07-28T18:06:32.919Z,22.00
2022-07-28T18:09:07.874Z,21.90
2022-07-28T18:11:57.406Z,21.60
2022-07-28T18:14:33.789Z,21.30
2022-07-28T18:17:03.296Z,21.00
2022-07-28T18:19:33.633Z,20.60
2022-07-28T18:22:05.921Z,20.30
2022-07-28T18:24:35.962Z,20.00
2022-07-28T18:27:07.434Z,19.90
2022-07-28T18:29:38.962Z,19.90
2022-07-28T18:32:11.103Z,19.60
2022-07-28T18:34:42.092Z,19.60
2022-07-28T18:37:13.237Z,19.20
2022-07-28T18:39:44.936Z,19.50
2022-07-28T18:42:17.328Z,19.50
2022-07-28T18:44:48.123Z,19.30
2022-07-28T18:47:18.431Z,19.20
2022-07-28T18:49:48.060Z,19.20
2022-07-28T18:52:19.039Z,19.20
2022-07-28T18:54:49.064Z,19.00
2022-07-28T18:57:24.410Z,19.00
2022-07-28T18:59:55.693Z,18.90
2022-07-28T19:02:27.437Z,18.60
2022-07-28T19:04:58.703Z,18.40
2022-07-28T19:07:30.139Z,18.20
2022-07-28T19:10:00.232Z,18.10
2022-07-28T19:12:32.306Z,17.90
2022-07-28T19:15:03.247Z,17.80
2022-07-28T19:17:35.147Z,17.60
2022-07-28T19:20:08.264Z,17.50
2022-07-28T19:22:38.504Z,17.20
2022-07-28T19:25:09.415Z,17.10
2022-07-28T19:27:44.323Z,17.10
2022-07-28T19:30:15.914Z,17.10
2022-07-28T19:32:47.616Z,17.00
2022-07-28T19:35:17.303Z,17.00
2022-07-28T19:37:47.800Z,16.90
2022-07-28T19:40:17.466Z,16.90
2022-07-28T19:45:58.647Z,16.70
2022-07-28T19:48:36.087Z,16.60
2022-07-28T19:51:09.816Z,16.50
2022-07-28T19:54:10.347Z,16.40
2022-07-28T19:57:02.155Z,16.30
2022-07-28T19:59:47.024Z,16.20
2022-07-28T20:02:32.323Z,16.10
2022-07-28T20:05:16.393Z,16.10
2022-07-28T20:07:51.002Z,15.90
2022-07-28T20:10:43.185Z,15.80
2022-07-28T20:13:17.339Z,15.70
2022-07-28T20:16:28.120Z,15.70
2022-07-28T20:19:13.070Z,15.60
2022-07-28T20:21:44.798Z,15.40
2022-07-28T20:24:19.955Z,15.30
2022-07-28T20:26:50.306Z,15.20
2022-07-28T20:29:41.353Z,15.20
2022-07-28T20:32:55.511Z,15.10
2022-07-28T20:35:29.214Z,15.00
2022-07-28T20:38:09.837Z,15.10
2022-07-28T20:40:43.853Z,15.00
2022-07-28T20:43:38.583Z,14.90
2022-07-28T20:46:31.202Z,14.90
2022-07-28T20:49:03.924Z,14.80
2022-07-28T20:51:36.224Z,14.80
2022-07-28T20:54:07.800Z,14.70
2022-07-28T20:56:52.991Z,14.70
2022-07-28T20:59:27.645Z,14.60
2022-07-28T21:02:05.096Z,14.50
2022-07-28T21:04:39.594Z,14.40
2022-07-28T21:07:15.861Z,14.40
2022-07-28T21:10:09.084Z,14.30
2022-07-28T21:12:41.645Z,14.90
2022-07-28T21:15:14.560Z,14.20
2022-07-28T21:17:46.127Z,13.90
2022-07-28T21:20:17.751Z,13.90
2022-07-28T21:22:52.328Z,13.80
2022-07-28T21:25:24.380Z,13.80
2022-07-28T21:28:11.138Z,13.80
2022-07-28T21:31:05.564Z,13.80
2022-07-28T21:33:35.236Z,13.70
2022-07-28T21:36:22.072Z,13.80
2022-07-28T21:38:54.971Z,13.80
2022-07-28T21:41:26.496Z,14.20
2022-07-28T21:44:06.371Z,14.40
2022-07-28T21:46:40.299Z,14.40
2022-07-28T21:49:10.666Z,14.40
2022-07-28T21:51:40.379Z,14.30
2022-07-28T21:54:11.900Z,14.30
2022-07-28T21:56:41.451Z,14.20
2022-07-28T21:59:10.694Z,14.10
2022-07-28T22:01:39.879Z,14.00
2022-07-28T22:04:09.725Z,13.90
2022-07-28T22:06:40.238Z,13.90
2022-07-28T22:09:17.607Z,13.90
2022-07-28T22:11:52.699Z,13.80
2022-07-28T22:14:33.153Z,13.80
2022-07-28T22:17:05.443Z,13.60
2022-07-28T22:19:36.139Z,13.60
2022-07-28T22:22:05.642Z,13.50
2022-07-28T22:24:41.851Z,13.50
2022-07-28T22:27:11.422Z,13.40
2022-07-28T22:29:40.524Z,13.30
2022-07-28T22:32:26.660Z,13.20
2022-07-28T22:35:15.755Z,13.20
2022-07-28T22:38:15.994Z,13.10
2022-07-28T22:40:52.103Z,13.10
2022-07-28T22:43:28.318Z,13.10
2022-07-28T22:46:24.194Z,13.30
2022-07-28T22:49:13.524Z,13.40
2022-07-28T22:52:21.472Z,13.50
2022-07-28T23:09:59.951Z,13.40
2022-07-28T23:12:29.015Z,13.20
2022-07-28T23:14:57.771Z,13.10
2022-07-28T23:17:27.512Z,13.10
2022-07-28T23:19:59.398Z,12.90
2022-07-28T23:22:28.498Z,12.90
2022-07-28T23:24:59.572Z,12.90
2022-07-28T23:27:28.370Z,12.90
2022-07-28T23:29:57.267Z,12.80
2022-07-28T23:32:26.035Z,12.80
2022-07-28T23:34:54.924Z,12.70
2022-07-28T23:37:23.703Z,12.60
2022-07-28T23:39:52.471Z,12.60
2022-07-28T23:42:23.218Z,12.60
2022-07-28T23:44:52.083Z,12.90
2022-07-28T23:47:20.686Z,12.80
2022-07-28T23:49:49.483Z,13.00
2022-07-28T23:52:18.807Z,12.90
2022-07-28T23:54:47.521Z,12.80
2022-07-28T23:57:16.238Z,12.70
2022-07-28T23:59:46.498Z,12.60
